Time;durP1;ratioP1;P1;durP2;ratioP2;P2;SDS_P1;SDS_P2;PMS_P1;PMS_P2;Temp;Humidity;BMP_temperature;BMP_pressure;BME280_temperature;BME280_humidity;BME280_pressure;Samples;Min_cycle;Max_cycle;Signal;HPM_P1;HPM_P2
2024/02/10 00:02:11;;;;;;;;;;;;;;;9.21;100.00;98443.50;5113690;28;19926;-74
2024/02/10 00:04:38;;;;;;;;;;;;;;;9.20;100.00;98441.84;5115386;28;19927;-74
2024/02/10 00:07:04;;;;;;;;;;;;;;;9.20;100.00;98452.28;5115161;28;19983;-74
2024/02/10 00:09:29;;;;;;;;;;;;;;;9.22;100.00;98445.16;5115065;28;20178;-74
2024/02/10 00:11:54;;;;;;;;;;;;;;;9.20;100.00;98447.06;5114830;28;20026;-74
2024/02/10 00:14:20;;;;;;;;;;;;;;;9.20;100.00;98453.13;5115110;28;19920;-75
2024/02/10 00:16:45;;;;;;;;;;;;;;;9.21;100.00;98448.75;5114810;28;19920;-75
2024/02/10 00:19:11;;;;;;;;;;;;;;;9.21;100.00;98446.94;5096848;28;20207;-74
2024/02/10 00:21:36;;;;;;;;;;;;;;;9.22;100.00;98442.56;5116011;28;20108;-74
2024/02/10 00:24:02;;;;;;;;;;;;;;;9.20;100.00;98444.44;5116381;28;19911;-74
2024/02/10 00:26:27;;;;;;;;;;;;;;;9.19;100.00;98445.41;5116483;28;19920;-74
2024/02/10 00:28:55;;;;;;;;;;;;;;;9.21;100.00;98446.94;5114678;27;20371;-74
2024/02/10 00:31:24;;;;;;;;;;;;;;;9.22;100.00;98442.56;5101550;28;19991;-75
2024/02/10 00:33:57;;;;;;;;;;;;;;;9.22;100.00;98443.41;5077399;28;19922;-74
2024/02/10 00:36:22;;;;;;;;;;;;;;;9.25;100.00;98433.69;5110618;28;20003;-74
2024/02/10 00:38:48;;;;;;;;;;;;;;;9.26;100.00;98443.16;5094836;28;19923;-74
2024/02/10 00:41:13;;;;;;;;;;;;;;;9.23;100.00;98441.63;5099838;28;20170;-74
2024/02/10 00:43:42;;;;;;;;;;;;;;;9.23;100.00;98433.78;5090585;28;19920;-74
2024/02/10 00:46:13;;;;;;;;;;;;;;;9.22;100.00;98440.78;5112069;28;19915;-74
2024/02/10 00:48:39;;;;;;;;;;;;;;;9.23;100.00;98437.22;5103175;28;19951;-74
2024/02/10 00:51:05;;;;;;;;;;;;;;;9.22;100.00;98438.19;5097158;28;19920;-74
2024/02/10 00:53:31;;;;;;;;;;;;;;;9.21;100.00;98438.28;5078418;28;20237;-75
2024/02/10 00:55:56;;;;;;;;;;;;;;;9.22;100.00;98438.19;5095385;28;19923;-74
2024/02/10 00:58:22;;;;;;;;;;;;;;;9.21;100.00;98435.69;5096874;28;19908;-74
2024/02/10 01:00:47;;;;;;;;;;;;;;;9.24;100.00;98438.06;5096657;28;20240;-74
2024/02/10 01:03:13;;;;;;;;;;;;;;;9.24;100.00;98440.69;5096563;28;19916;-74
2024/02/10 01:05:38;;;;;;;;;;;;;;;9.21;100.00;98436.50;5096744;28;19946;-74
2024/02/10 01:08:05;;;;;;;;;;;;;;;9.20;100.00;98434.84;5095400;28;19924;-74
2024/02/10 01:10:30;;;;;;;;;;;;;;;9.21;100.00;98438.28;5096274;28;19916;-74
2024/02/10 01:12:56;;;;;;;;;;;;;;;9.21;100.00;98439.13;5095814;28;19947;-74
2024/02/10 01:15:21;;;;;;;;;;;;;;;9.20;100.00;98440.06;5103643;28;19916;-74
2024/02/10 01:17:48;;;;;;;;;;;;;;;9.22;100.00;98445.16;5096751;28;20211;-75
2024/02/10 01:20:16;;;;;;;;;;;;;;;9.23;100.00;98449.44;5091442;28;19987;-75
2024/02/10 01:22:42;;;;;;;;;;;;;;;9.22;100.00;98440.78;5073626;28;20003;-74
2024/02/10 01:25:08;;;;;;;;;;;;;;;9.22;100.00;98445.16;5095157;28;20212;-74
2024/02/10 01:27:33;;;;;;;;;;;;;;;9.21;100.00;98446.94;5095045;28;20116;-74
2024/02/10 01:30:01;;;;;;;;;;;;;;;9.23;100.00;98447.66;5093398;28;20003;-75
2024/02/10 01:32:26;;;;;;;;;;;;;;;9.22;100.00;98448.63;5111810;28;20273;-74
2024/02/10 01:34:55;;;;;;;;;;;;;;;9.21;100.00;98451.34;5115600;28;19951;-74
2024/02/10 01:37:23;;;;;;;;;;;;;;;9.16;100.00;98443.84;5115798;28;19928;-74
2024/02/10 01:39:53;;;;;;;;;;;;;;;9.15;100.00;98447.41;5115361;28;19931;-74
2024/02/10 01:42:19;;;;;;;;;;;;;;;9.14;100.00;98450.94;5114952;28;19911;-74
2024/02/10 01:44:45;;;;;;;;;;;;;;;9.13;100.00;98446.69;5115171;28;19930;-75
2024/02/10 01:47:11;;;;;;;;;;;;;;;9.12;100.00;98445.00;5114935;28;19919;-75
2024/02/10 01:49:39;;;;;;;;;;;;;;;9.12;100.00;98439.78;5115301;28;20242;-75
2024/02/10 01:52:05;;;;;;;;;;;;;;;9.11;100.00;98450.34;5115423;28;19992;-75
2024/02/10 01:54:31;;;;;;;;;;;;;;;9.10;100.00;98451.31;5122255;27;19927;-75
2024/02/10 01:56:56;;;;;;;;;;;;;;;9.07;100.00;98449.72;5115328;28;19923;-75
2024/02/10 01:59:22;;;;;;;;;;;;;;;9.08;100.00;98447.94;5115173;28;19999;-75
2024/02/10 02:01:48;;;;;;;;;;;;;;;9.09;100.00;98452.22;5096922;28;19920;-75
2024/02/10 02:04:14;;;;;;;;;;;;;;;9.09;100.00;98453.06;5114308;28;19920;-75
2024/02/10 02:06:39;;;;;;;;;;;;;;;9.09;100.00;98458.28;5115518;28;19927;-75
2024/02/10 02:09:05;;;;;;;;;;;;;;;9.10;100.00;98457.34;5114568;28;19916;-74
2024/02/10 02:11:30;;;;;;;;;;;;;;;9.08;100.00;98467.06;5114796;28;20153;-74
2024/02/10 02:14:00;;;;;;;;;;;;;;;9.08;100.00;98461.84;5114761;28;19991;-74
2024/02/10 02:16:28;;;;;;;;;;;;;;;9.08;100.00;98454.03;5115324;28;19919;-74
2024/02/10 02:18:57;;;;;;;;;;;;;;;9.10;100.00;98459.13;5114613;28;20215;-75
2024/02/10 02:21:22;;;;;;;;;;;;;;;9.09;100.00;98460.06;5115123;28;19923;-75
2024/02/10 02:23:47;;;;;;;;;;;;;;;9.09;100.00;98460.06;5115100;28;19949;-75
2024/02/10 02:26:13;;;;;;;;;;;;;;;9.10;100.00;98453.91;5114653;28;19919;-75
2024/02/10 02:28:38;;;;;;;;;;;;;;;9.11;100.00;98458.19;5114794;28;19915;-75
2024/02/10 02:31:04;;;;;;;;;;;;;;;9.10;100.00;98451.31;5109522;28;20085;-75
2024/02/10 02:33:32;;;;;;;;;;;;;;;9.10;100.00;98444.28;5093932;28;20864;-75
2024/02/10 02:35:57;;;;;;;;;;;;;;;9.09;100.00;98452.22;5089798;28;19919;-75
2024/02/10 02:38:23;;;;;;;;;;;;;;;9.09;100.00;98452.22;5095227;28;19977;-75
2024/02/10 02:40:49;;;;;;;;;;;;;;;9.10;100.00;98446.91;5094701;28;19955;-75
2024/02/10 02:43:14;;;;;;;;;;;;;;;9.09;100.00;98447.84;5094841;28;19916;-75
2024/02/10 02:45:42;;;;;;;;;;;;;;;9.08;100.00;98448.78;5094918;28;19939;-74
2024/02/10 02:48:10;;;;;;;;;;;;;;;9.07;100.00;98452.34;5094716;28;20116;-75
2024/02/10 02:50:37;;;;;;;;;;;;;;;9.06;100.00;98436.78;5094637;28;19923;-75
2024/02/10 02:53:03;;;;;;;;;;;;;;;9.03;100.00;98437.84;5106635;28;19981;-75
2024/02/10 02:55:29;;;;;;;;;;;;;;;9.02;100.00;98434.41;5094897;28;20244;-75
2024/02/10 02:57:55;;;;;;;;;;;;;;;9.03;100.00;98435.25;5094491;28;19938;-75
2024/02/10 03:00:20;;;;;;;;;;;;;;;9.03;100.00;98432.63;5076616;28;19928;-75
2024/02/10 03:02:46;;;;;;;;;;;;;;;9.03;100.00;98435.25;5076108;28;19920;-75
2024/02/10 03:05:12;;;;;;;;;;;;;;;9.03;100.00;98435.25;5098590;28;20192;-75
2024/02/10 03:07:42;;;;;;;;;;;;;;;9.01;100.00;98430.13;5114273;28;19922;-75
2024/02/10 03:10:08;;;;;;;;;;;;;;;9.00;100.00;98431.09;5113791;28;19920;-75
2024/02/10 03:12:33;;;;;;;;;;;;;;;9.01;100.00;98429.31;5105922;28;20093;-75
2024/02/10 03:15:00;;;;;;;;;;;;;;;9.01;100.00;98429.31;5114073;28;20238;-75
2024/02/10 03:17:30;;;;;;;;;;;;;;;9.01;100.00;98422.28;5114834;28;20256;-75
2024/02/10 03:19:56;;;;;;;;;;;;;;;9.01;100.00;98424.91;5114376;28;19919;-75
2024/02/10 03:22:21;;;;;;;;;;;;;;;9.00;100.00;98425.88;5103652;28;19937;-75
2024/02/10 03:24:48;;;;;;;;;;;;;;;9.02;100.00;98436.16;5095055;28;19916;-75
2024/02/10 03:27:15;;;;;;;;;;;;;;;9.00;100.00;98433.69;5094401;28;19916;-75
2024/02/10 03:29:40;;;;;;;;;;;;;;;8.99;100.00;98437.25;5095049;28;20150;-74
2024/02/10 03:32:05;;;;;;;;;;;;;;;8.99;100.00;98432.03;5104518;28;19959;-75
2024/02/10 03:34:31;;;;;;;;;;;;;;;8.98;100.00;98434.72;5117968;28;19923;-75
2024/02/10 03:36:56;;;;;;;;;;;;;;;8.98;100.00;98434.72;5117725;28;20199;-75
2024/02/10 03:39:21;;;;;;;;;;;;;;;8.97;100.00;98430.47;5118006;28;20088;-75
2024/02/10 03:41:46;;;;;;;;;;;;;;;8.98;100.00;98426.91;5118157;28;20200;-75
2024/02/10 03:44:12;;;;;;;;;;;;;;;8.96;100.00;98424.41;5118028;28;19915;-75
2024/02/10 03:46:37;;;;;;;;;;;;;;;8.96;100.00;98428.78;5117800;28;19923;-75
2024/02/10 03:49:02;;;;;;;;;;;;;;;8.97;100.00;98433.09;5117932;28;20130;-75
2024/02/10 03:51:29;;;;;;;;;;;;;;;8.96;100.00;98428.78;5118184;28;19926;-75
2024/02/10 03:53:55;;;;;;;;;;;;;;;8.96;100.00;98434.00;5117397;28;20167;-75
2024/02/10 03:56:21;;;;;;;;;;;;;;;8.96;100.00;98432.22;5117247;28;19931;-74
2024/02/10 03:58:47;;;;;;;;;;;;;;;8.96;100.00;98429.63;5117582;28;19920;-74
2024/02/10 04:01:13;;;;;;;;;;;;;;;8.96;100.00;98434.00;5117023;28;20238;-74
2024/02/10 04:03:42;;;;;;;;;;;;;;;8.97;100.00;98438.31;5116688;28;20009;-74
2024/02/10 04:06:09;;;;;;;;;;;;;;;8.97;100.00;98439.13;5117405;28;19950;-74
2024/02/10 04:08:34;;;;;;;;;;;;;;;8.97;100.00;98433.09;5117616;28;19927;-74
2024/02/10 04:11:06;;;;;;;;;;;;;;;8.97;100.00;98440.91;5117316;28;20177;-74
2024/02/10 04:13:35;;;;;;;;;;;;;;;8.97;100.00;98443.53;5109537;28;19916;-74
2024/02/10 04:16:00;;;;;;;;;;;;;;;8.96;100.00;98440.06;5117104;28;20252;-75
2024/02/10 04:18:27;;;;;;;;;;;;;;;8.98;100.00;98437.34;5110330;28;19920;-75
2024/02/10 04:20:53;;;;;;;;;;;;;;;8.99;100.00;98445.06;5116662;28;19924;-74
2024/02/10 04:23:18;;;;;;;;;;;;;;;8.99;100.00;98441.63;5116977;28;19927;-74
2024/02/10 04:25:45;;;;;;;;;;;;;;;8.98;100.00;98448.63;5098861;28;19927;-74
2024/02/10 04:28:10;;;;;;;;;;;;;;;8.99;100.00;98447.69;5116771;28;19995;-74
2024/02/10 04:30:35;;;;;;;;;;;;;;;8.99;100.00;98449.47;5117025;28;20127;-74
2024/02/10 04:33:01;;;;;;;;;;;;;;;8.99;100.00;98452.06;5116555;28;19923;-75
2024/02/10 04:35:26;;;;;;;;;;;;;;;8.99;100.00;98450.28;5117236;28;19951;-75
2024/02/10 04:37:51;;;;;;;;;;;;;;;8.97;100.00;98449.56;5116372;28;19920;-75
2024/02/10 04:40:17;;;;;;;;;;;;;;;8.98;100.00;98445.19;5116266;28;20270;-75
2024/02/10 04:42:42;;;;;;;;;;;;;;;8.96;100.00;98447.06;5115394;28;19920;-75
2024/02/10 04:45:08;;;;;;;;;;;;;;;8.95;100.00;98446.25;5115866;28;20161;-75
2024/02/10 04:47:34;;;;;;;;;;;;;;;8.94;100.00;98436.72;5116942;28;19919;-75
2024/02/10 04:50:01;;;;;;;;;;;;;;;8.94;100.00;98446.34;5116161;28;20123;-75
2024/02/10 04:52:26;;;;;;;;;;;;;;;8.93;100.00;98442.91;5116303;28;19951;-75
2024/02/10 04:54:53;;;;;;;;;;;;;;;8.92;100.00;98443.84;5116229;28;19926;-75
2024/02/10 04:57:28;;;;;;;;;;;;;;;8.90;100.00;98448.34;5116173;28;19919;-75
2024/02/10 04:59:54;;;;;;;;;;;;;;;8.90;100.00;98458.78;5116225;28;19924;-74
2024/02/10 05:02:19;;;;;;;;;;;;;;;8.89;100.00;98451.88;5116342;28;20250;-74
2024/02/10 05:04:44;;;;;;;;;;;;;;;8.89;100.00;98451.06;5116587;28;19920;-74
2024/02/10 05:07:15;;;;;;;;;;;;;;;8.88;100.00;98452.84;5115180;28;19951;-75
2024/02/10 05:09:41;;;;;;;;;;;;;;;8.89;100.00;98462.31;5113520;28;19927;-74
2024/02/10 05:12:06;;;;;;;;;;;;;;;8.88;100.00;98455.47;5113170;28;19960;-74
2024/02/10 05:14:32;;;;;;;;;;;;;;;8.88;100.00;98465.91;5116172;28;19915;-74
2024/02/10 05:16:57;;;;;;;;;;;;;;;8.88;100.00;98468.50;5098136;28;20131;-75
2024/02/10 05:19:23;;;;;;;;;;;;;;;8.87;100.00;98464.22;5115630;28;19986;-75
2024/02/10 05:21:48;;;;;;;;;;;;;;;8.87;100.00;98469.44;5115792;28;19931;-75
2024/02/10 05:24:15;;;;;;;;;;;;;;;8.87;100.00;98474.66;5114990;28;19935;-75
2024/02/10 05:26:42;;;;;;;;;;;;;;;8.87;100.00;98477.28;5115061;28;19923;-75
2024/02/10 05:29:10;;;;;;;;;;;;;;;8.88;100.00;98478.94;5112304;28;19919;-74
2024/02/10 05:31:36;;;;;;;;;;;;;;;8.89;100.00;98477.16;5114778;28;19908;-74
2024/02/10 05:34:02;;;;;;;;;;;;;;;8.88;100.00;98476.34;5114380;28;20211;-74
2024/02/10 05:36:28;;;;;;;;;;;;;;;8.89;100.00;98480.59;5110875;28;19991;-74
2024/02/10 05:38:53;;;;;;;;;;;;;;;8.87;100.00;98490.31;5120320;27;19927;-75
2024/02/10 05:41:18;;;;;;;;;;;;;;;8.88;100.00;98484.16;5124266;27;19924;-74
2024/02/10 05:43:45;;;;;;;;;;;;;;;8.89;100.00;98479.78;5116140;28;19922;-74
2024/02/10 05:46:13;;;;;;;;;;;;;;;8.90;100.00;98484.06;5097202;28;19908;-74
2024/02/10 05:48:38;;;;;;;;;;;;;;;8.90;100.00;98489.28;5115324;28;19920;-74
2024/02/10 05:51:03;;;;;;;;;;;;;;;8.89;100.00;98488.44;5115541;28;19930;-75
2024/02/10 05:53:29;;;;;;;;;;;;;;;8.89;100.00;98493.66;5114747;28;20006;-75
2024/02/10 05:55:58;;;;;;;;;;;;;;;8.91;100.00;98488.31;5115227;28;19920;-74
2024/02/10 05:58:23;;;;;;;;;;;;;;;8.92;100.00;98492.63;5114991;28;20286;-74
2024/02/10 06:00:49;;;;;;;;;;;;;;;8.90;100.00;98492.72;5114694;28;20538;-74
2024/02/10 06:03:14;;;;;;;;;;;;;;;8.92;100.00;98495.22;5115121;28;20249;-74
2024/02/10 06:05:40;;;;;;;;;;;;;;;8.92;100.00;98495.22;5115025;28;19922;-74
2024/02/10 06:08:10;;;;;;;;;;;;;;;8.91;100.00;98488.31;5114008;28;19919;-75
2024/02/10 06:10:35;;;;;;;;;;;;;;;8.90;100.00;98492.72;5115075;28;19916;-75
2024/02/10 06:13:01;;;;;;;;;;;;;;;8.90;100.00;98499.72;5114713;28;19957;-75
2024/02/10 06:15:29;;;;;;;;;;;;;;;8.89;100.00;98504.09;5115423;28;19920;-75
2024/02/10 06:17:55;;;;;;;;;;;;;;;8.91;100.00;98506.59;5114188;28;19957;-75
2024/02/10 06:20:23;;;;;;;;;;;;;;;8.90;100.00;98516.22;5113034;28;19928;-75
2024/02/10 06:22:50;;;;;;;;;;;;;;;8.90;100.00;98513.59;5114074;28;19919;-75
2024/02/10 06:25:15;;;;;;;;;;;;;;;8.90;100.00;98516.22;5114624;28;20139;-74
2024/02/10 06:27:46;;;;;;;;;;;;;;;8.89;100.00;98519.75;5114722;28;19923;-75
2024/02/10 06:30:14;;;;;;;;;;;;;;;8.88;100.00;98520.72;5112287;28;19943;-75
2024/02/10 06:32:39;;;;;;;;;;;;;;;8.87;100.00;98521.63;5114523;28;20211;-75
2024/02/10 06:35:06;;;;;;;;;;;;;;;8.85;100.00;98520.91;5113623;28;19931;-75
2024/02/10 06:37:32;;;;;;;;;;;;;;;8.82;100.00;98521.97;5111512;28;19926;-75
2024/02/10 06:39:58;;;;;;;;;;;;;;;8.80;100.00;98516.03;5113752;28;20010;-74
2024/02/10 06:42:24;;;;;;;;;;;;;;;8.80;100.00;98523.00;5096518;28;19938;-75
2024/02/10 06:44:50;;;;;;;;;;;;;;;8.80;100.00;98531.69;5114021;28;19920;-75
2024/02/10 06:47:15;;;;;;;;;;;;;;;8.81;100.00;98540.34;5114474;28;19953;-75
2024/02/10 06:49:40;;;;;;;;;;;;;;;8.80;100.00;98544.75;5114377;28;20307;-74
2024/02/10 06:52:09;;;;;;;;;;;;;;;8.81;100.00;98550.78;5114081;28;19926;-74
2024/02/10 06:54:37;;;;;;;;;;;;;;;8.81;100.00;98548.19;5114378;28;20149;-74
2024/02/10 06:57:02;;;;;;;;;;;;;;;8.81;100.00;98549.00;5095001;28;19924;-74
2024/02/10 06:59:28;;;;;;;;;;;;;;;8.83;100.00;98546.28;5096394;28;20253;-75
2024/02/10 07:01:56;;;;;;;;;;;;;;;8.83;100.00;98556.72;5113922;28;19939;-75
2024/02/10 07:04:22;;;;;;;;;;;;;;;8.83;100.00;98567.19;5114347;28;19920;-75
2024/02/10 07:06:53;;;;;;;;;;;;;;;8.83;100.00;98567.19;5117573;28;19991;-75
2024/02/10 07:09:19;;;;;;;;;;;;;;;8.82;100.00;98565.50;5117525;28;20168;-75
2024/02/10 07:11:45;;;;;;;;;;;;;;;8.83;100.00;98561.97;5116678;28;19947;-74
2024/02/10 07:14:10;;;;;;;;;;;;;;;8.83;100.00;98567.19;5117012;28;19982;-75
2024/02/10 07:16:35;;;;;;;;;;;;;;;8.82;100.00;98563.75;5117591;27;19998;-75
2024/02/10 07:19:00;;;;;;;;;;;;;;;8.81;100.00;98569.06;5117732;28;19916;-74
2024/02/10 07:21:26;;;;;;;;;;;;;;;8.80;100.00;98565.63;5118280;28;20014;-75
2024/02/10 07:23:51;;;;;;;;;;;;;;;8.79;100.00;98558.72;5117495;28;20254;-75
2024/02/10 07:26:20;;;;;;;;;;;;;;;8.78;100.00;98562.25;5118026;28;20154;-75
2024/02/10 07:28:51;;;;;;;;;;;;;;;8.79;100.00;98563.13;5117187;28;19915;-74
2024/02/10 07:31:16;;;;;;;;;;;;;;;8.79;100.00;98563.13;5117012;28;19916;-74
2024/02/10 07:33:45;;;;;;;;;;;;;;;8.79;100.00;98565.72;5116780;28;19924;-75
2024/02/10 07:36:10;;;;;;;;;;;;;;;8.79;100.00;98571.78;5116871;28;20260;-75
2024/02/10 07:38:38;;;;;;;;;;;;;;;8.79;100.00;98577.00;5117077;28;19943;-75
2024/02/10 07:41:03;;;;;;;;;;;;;;;8.79;100.00;98577.00;5116636;28;20294;-74
2024/02/10 07:43:30;;;;;;;;;;;;;;;8.80;100.00;98577.81;5098197;28;19994;-74
2024/02/10 07:45:55;;;;;;;;;;;;;;;8.79;100.00;98581.38;5116908;28;19951;-74
2024/02/10 07:48:21;;;;;;;;;;;;;;;8.78;100.00;98587.53;5117295;28;20247;-74
2024/02/10 07:50:46;;;;;;;;;;;;;;;8.77;100.00;98591.94;5117891;28;19916;-74
2024/02/10 07:53:12;;;;;;;;;;;;;;;8.76;100.00;98594.63;5117578;28;19981;-74
2024/02/10 07:55:38;;;;;;;;;;;;;;;8.74;100.00;98596.53;5117380;28;19986;-74
2024/02/10 07:58:07;;;;;;;;;;;;;;;8.74;100.00;98586.91;5117470;28;19922;-74
2024/02/10 08:00:32;;;;;;;;;;;;;;;8.74;100.00;98593.91;5117458;28;19959;-74
2024/02/10 08:02:59;;;;;;;;;;;;;;;8.75;100.00;98592.97;5116896;28;20119;-74
2024/02/10 08:05:24;;;;;;;;;;;;;;;8.75;100.00;98591.22;5118246;28;20182;-74
2024/02/10 08:07:49;;;;;;;;;;;;;;;8.75;100.00;98590.34;5098583;28;19915;-74
2024/02/10 08:10:15;;;;;;;;;;;;;;;8.74;100.00;98593.91;5117421;28;20129;-74
2024/02/10 08:12:45;;;;;;;;;;;;;;;8.73;100.00;98600.06;5116506;28;20152;-74
2024/02/10 08:15:11;;;;;;;;;;;;;;;8.72;100.00;98598.41;5116448;28;19916;-74
2024/02/10 08:17:37;;;;;;;;;;;;;;;8.72;100.00;98604.44;5116147;28;19914;-74
2024/02/10 08:20:03;;;;;;;;;;;;;;;8.74;100.00;98606.97;5116431;28;19943;-74
2024/02/10 08:22:34;;;;;;;;;;;;;;;8.73;100.00;98605.28;5116614;28;19916;-74
2024/02/10 08:24:59;;;;;;;;;;;;;;;8.72;100.00;98612.28;5116849;28;19923;-74
2024/02/10 08:27:31;;;;;;;;;;;;;;;8.72;100.00;98624.50;5117347;28;19908;-74
2024/02/10 08:29:58;;;;;;;;;;;;;;;8.73;100.00;98628.75;5117383;28;20236;-74
2024/02/10 08:32:23;;;;;;;;;;;;;;;8.73;100.00;98633.97;5116873;28;19937;-74
2024/02/10 08:34:51;;;;;;;;;;;;;;;8.72;100.00;98634.94;5114738;28;19920;-74
2024/02/10 08:37:16;;;;;;;;;;;;;;;8.71;100.00;98638.47;5098495;28;19915;-75
2024/02/10 08:39:45;;;;;;;;;;;;;;;8.71;100.00;98646.31;5116692;28;19986;-75
2024/02/10 08:42:11;;;;;;;;;;;;;;;8.71;100.00;98643.69;5098541;28;19918;-74
2024/02/10 08:44:37;;;;;;;;;;;;;;;8.71;100.00;98639.31;5116731;28;19943;-74
2024/02/10 08:47:03;;;;;;;;;;;;;;;8.72;100.00;98640.16;5116653;28;19916;-74
2024/02/10 08:49:29;;;;;;;;;;;;;;;8.72;100.00;98637.56;5116981;28;19930;-74
2024/02/10 08:51:54;;;;;;;;;;;;;;;8.72;100.00;98642.78;5116222;28;19920;-74
2024/02/10 08:54:19;;;;;;;;;;;;;;;8.73;100.00;98634.84;5116182;28;19927;-74
2024/02/10 08:56:45;;;;;;;;;;;;;;;8.73;100.00;98652.25;5116569;28;19983;-74
2024/02/10 08:59:12;;;;;;;;;;;;;;;8.73;100.00;98654.88;5116119;28;20127;-74
2024/02/10 09:01:41;;;;;;;;;;;;;;;8.74;100.00;98653.94;5116537;28;20092;-74
2024/02/10 09:04:06;;;;;;;;;;;;;;;8.75;100.00;98658.19;5115794;28;19916;-74
2024/02/10 09:06:31;;;;;;;;;;;;;;;8.77;100.00;98662.41;5115926;28;20115;-74
2024/02/10 09:08:56;;;;;;;;;;;;;;;8.80;100.00;98661.34;5114854;28;20108;-74
2024/02/10 09:11:22;;;;;;;;;;;;;;;8.84;100.00;98670.63;5114192;28;20108;-74
2024/02/10 09:13:48;;;;;;;;;;;;;;;8.87;100.00;98667.81;5115257;28;19914;-74
2024/02/10 09:16:14;;;;;;;;;;;;;;;8.91;100.00;98676.28;5115228;28;20234;-74
2024/02/10 09:18:42;;;;;;;;;;;;;;;8.92;100.00;98675.34;5115934;28;19916;-74
2024/02/10 09:21:08;;;;;;;;;;;;;;;8.95;100.00;98672.50;5115521;28;19954;-75
2024/02/10 09:23:33;;;;;;;;;;;;;;;8.96;100.00;98672.41;5114647;28;19919;-75
2024/02/10 09:25:58;;;;;;;;;;;;;;;8.97;100.00;98674.09;5097120;28;19920;-74
2024/02/10 09:28:26;;;;;;;;;;;;;;;9.00;100.00;98679.09;5114522;28;20313;-75
2024/02/10 09:30:51;;;;;;;;;;;;;;;9.01;100.00;98674.72;5114820;28;19916;-74
2024/02/10 09:33:21;;;;;;;;;;;;;;;9.01;100.00;98680.75;5106971;27;19998;-74
2024/02/10 09:35:46;;;;;;;;;;;;;;;9.02;100.00;98681.59;5116333;27;19927;-74
2024/02/10 09:38:12;;;;;;;;;;;;;;;9.03;100.00;98678.88;5115943;28;19907;-74
2024/02/10 09:40:42;;;;;;;;;;;;;;;9.03;100.00;98680.66;5118372;27;19998;-74
2024/02/10 09:43:08;;;;;;;;;;;;;;;9.05;100.00;98686.59;5114842;27;19949;-74
2024/02/10 09:45:35;;;;;;;;;;;;;;;9.07;100.00;98686.50;5117753;27;19950;-74
2024/02/10 09:48:01;;;;;;;;;;;;;;;9.08;100.00;98686.41;5110922;27;20246;-74
2024/02/10 09:50:31;;;;;;;;;;;;;;;9.10;100.00;98678.47;5115372;28;20111;-74
2024/02/10 09:52:56;;;;;;;;;;;;;;;9.11;100.00;98677.50;5114226;27;19920;-74
2024/02/10 09:55:22;;;;;;;;;;;;;;;9.13;100.00;98670.41;5119296;27;19927;-74
2024/02/10 09:57:48;;;;;;;;;;;;;;;9.15;100.00;98673.75;5113068;28;19915;-74
2024/02/10 10:00:16;;;;;;;;;;;;;;;9.17;100.00;98674.50;5107619;27;19923;-74
2024/02/10 10:02:47;;;;;;;;;;;;;;;9.20;100.00;98685.56;5094787;28;20235;-74
2024/02/10 10:05:13;;;;;;;;;;;;;;;9.23;100.00;98680.09;5096894;28;19920;-74
2024/02/10 10:07:38;;;;;;;;;;;;;;;9.28;100.00;98678.94;5094614;28;19983;-74
2024/02/10 10:10:03;;;;;;;;;;;;;;;9.30;100.00;98679.69;5096252;28;20004;-74
2024/02/10 10:12:29;;;;;;;;;;;;;;;9.31;100.00;98676.94;5093451;28;19920;-74
2024/02/10 10:14:54;;;;;;;;;;;;;;;9.34;100.00;98681.97;5095845;28;20208;-75
2024/02/10 10:17:19;;;;;;;;;;;;;;;9.36;100.00;98685.31;5116573;27;20110;-74
2024/02/10 10:19:44;;;;;;;;;;;;;;;9.39;100.00;98690.34;5112560;27;20142;-74
2024/02/10 10:22:10;;;;;;;;;;;;;;;9.43;100.00;98693.56;5117177;27;19977;-74
2024/02/10 10:24:36;;;;;;;;;;;;;;;9.45;100.00;98693.47;5114164;28;19919;-74
2024/02/10 10:27:02;;;;;;;;;;;;;;;9.48;100.00;98681.03;5115823;28;19916;-74
2024/02/10 10:29:33;;;;;;;;;;;;;;;9.51;100.00;98686.00;5114015;28;20191;-74
2024/02/10 10:32:01;;;;;;;;;;;;;;;9.56;100.00;98681.28;5114134;28;20177;-75
2024/02/10 10:34:28;;;;;;;;;;;;;;;9.58;100.00;98683.81;5114151;28;19924;-75
2024/02/10 10:36:53;;;;;;;;;;;;;;;9.62;100.00;98682.63;5106381;28;19943;-74
2024/02/10 10:39:21;;;;;;;;;;;;;;;9.65;100.00;98687.66;5114481;27;20091;-74
2024/02/10 10:41:47;;;;;;;;;;;;;;;9.67;100.00;98679.72;5103519;27;19923;-75
2024/02/10 10:44:16;;;;;;;;;;;;;;;9.70;100.00;98674.28;5117706;27;19973;-74
2024/02/10 10:46:42;;;;;;;;;;;;;;;9.74;100.00;98680.94;5085154;28;19947;-74
2024/02/10 10:49:09;;;;;;;;;;;;;;;9.76;100.00;98677.25;5119334;28;19922;-74
2024/02/10 10:51:40;;;;;;;;;;;;;;;9.78;100.00;98679.78;5117972;28;19982;-74
2024/02/10 10:54:06;;;;;;;;;;;;;;;9.79;100.00;98687.50;5121222;28;19916;-74
2024/02/10 10:56:32;;;;;;;;;;;;;;;9.82;100.00;98683.81;5120812;28;19916;-74
2024/02/10 10:59:00;;;;;;;;;;;;;;;9.85;100.00;98685.41;5109434;28;19919;-74
2024/02/10 11:01:26;;;;;;;;;;;;;;;9.87;100.00;98689.56;5119407;28;19919;-74
2024/02/10 11:03:58;;;;;;;;;;;;;;;9.90;100.00;98685.91;5114380;28;19971;-74
2024/02/10 11:06:27;;;;;;;;;;;;;;;9.93;100.00;98680.44;5116095;28;19916;-74
2024/02/10 11:08:53;;;;;;;;;;;;;;;9.96;100.00;98682.84;5116933;28;19982;-74
2024/02/10 11:11:18;;;;;;;;;;;;;;;9.97;100.00;98674.88;5117971;28;19914;-74
2024/02/10 11:13:43;;;;;;;;;;;;;;;10.01;100.00;98674.69;5093991;28;20115;-73
2024/02/10 11:16:12;;;;;;;;;;;;;;;10.03;100.00;98668.38;5123977;28;19984;-73
2024/02/10 11:18:38;;;;;;;;;;;;;;;10.06;100.00;98660.31;5124246;28;20029;-73
2024/02/10 11:21:10;;;;;;;;;;;;;;;10.10;100.00;98668.78;5125435;28;19912;-73
2024/02/10 11:23:37;;;;;;;;;;;;;;;10.09;100.00;98667.91;5122399;28;19951;-73
2024/02/10 11:26:05;;;;;;;;;;;;;;;10.11;100.00;98666.00;5121888;28;19923;-73
2024/02/10 11:28:37;;;;;;;;;;;;;;;10.14;100.00;98659.75;5101218;28;19916;-73
2024/02/10 11:31:09;;;;;;;;;;;;;;;10.14;100.00;98655.34;5112856;28;20012;-73
2024/02/10 11:33:34;;;;;;;;;;;;;;;10.17;100.00;98659.53;5120073;28;19924;-73
2024/02/10 11:36:00;;;;;;;;;;;;;;;10.18;100.00;98663.78;5097258;28;20217;-73
2024/02/10 11:38:25;;;;;;;;;;;;;;;10.19;100.00;98655.84;5101643;28;19942;-73
2024/02/10 11:40:50;;;;;;;;;;;;;;;10.23;100.00;98653.84;5117934;28;19920;-73
2024/02/10 11:43:16;;;;;;;;;;;;;;;10.26;100.00;98653.63;5091159;28;19951;-73
2024/02/10 11:45:42;;;;;;;;;;;;;;;10.27;100.00;98650.03;5094868;28;20250;-73
2024/02/10 11:48:10;;;;;;;;;;;;;;;10.28;100.00;98656.13;5099332;28;19915;-73
2024/02/10 11:50:42;;;;;;;;;;;;;;;10.31;100.00;98655.91;5080657;27;19919;-73
2024/02/10 11:53:09;;;;;;;;;;;;;;;10.32;100.00;98649.75;5108695;27;20256;-74
2024/02/10 11:55:34;;;;;;;;;;;;;;;10.34;100.00;98648.66;5103721;27;19920;-73
2024/02/10 11:58:00;;;;;;;;;;;;;;;10.36;100.00;98645.94;5107053;27;19956;-73
2024/02/10 12:00:29;;;;;;;;;;;;;;;10.37;100.00;98645.00;5111341;27;19923;-73
2024/02/10 12:02:54;;;;;;;;;;;;;;;10.38;100.00;98652.72;5107032;27;19916;-73
2024/02/10 12:05:20;;;;;;;;;;;;;;;10.39;100.00;98643.09;5110330;27;19943;-73
2024/02/10 12:07:46;;;;;;;;;;;;;;;10.38;100.00;98644.84;5100198;27;19915;-73
2024/02/10 12:10:11;;;;;;;;;;;;;;;10.42;100.00;98647.25;5103396;27;20249;-73
2024/02/10 12:12:37;;;;;;;;;;;;;;;10.44;100.00;98646.22;5111287;27;19923;-73
2024/02/10 12:15:02;;;;;;;;;;;;;;;10.45;100.00;98644.41;5106992;27;19920;-73
2024/02/10 12:17:30;;;;;;;;;;;;;;;10.46;100.00;98654.78;5108871;27;19908;-74
2024/02/10 12:19:56;;;;;;;;;;;;;;;10.48;100.00;98652.88;5098701;27;19934;-73
2024/02/10 12:22:22;;;;;;;;;;;;;;;10.49;100.00;98651.91;5098330;27;20291;-73
2024/02/10 12:24:47;;;;;;;;;;;;;;;10.50;100.00;98653.59;5092880;27;19925;-73
2024/02/10 12:27:13;;;;;;;;;;;;;;;10.52;100.00;98654.31;5090787;27;19946;-73
2024/02/10 12:29:38;;;;;;;;;;;;;;;10.53;100.00;98655.13;5074360;27;20337;-73
2024/02/10 12:32:04;;;;;;;;;;;;;;;10.56;100.00;98660.97;5100604;27;20234;-73
2024/02/10 12:34:29;;;;;;;;;;;;;;;10.59;100.00;98653.81;5094653;27;19930;-73
2024/02/10 12:36:54;;;;;;;;;;;;;;;10.59;100.00;98654.69;5106059;27;19991;-74
2024/02/10 12:39:20;;;;;;;;;;;;;;;10.61;100.00;98650.16;5095297;27;20110;-73
2024/02/10 12:41:45;;;;;;;;;;;;;;;10.61;100.00;98657.19;5097890;27;20128;-73